Latest Coastal Weather Observations for Robe Airport

IDV60701

Issued at 1:12 am EST Thursday 3 September 2026 (issued every 10 minutes, with the page automatically refreshed every 10 minutes)

About coastal observations | Map of coastal stations | Coastal observations for VIC | Marine services | Other Formats
Station Details ID: 026105 Name: ROBE AIRFIELD Lat: -37.18 Lon: 139.81 Height: 3.0 m
Data from the previous 72 hours. | See also: Recent months at Robe Airport
Date/Time
EST
Wind Sea
Height
m
Swell Vis
km
Cloud Weather Temp
°C
Press
MSL
hPa
Rain since
9am
mm
Dir  Spd
kts
Gust
kts
Height
m
Period
s
Dir
03/01:00am NW 15 21 - - - - - - - 14.1 1011.1 0.0
03/12:30am NW 14 20 - - - - - - - 13.5 1011.5 0.0
03/12:00am NW 12 16 - - - - - - - 13.7 1011.6 0.0
 
Date/Time
EST
Wind Sea
Height
m
Swell Vis
km
Cloud Weather Temp
°C
Press
MSL
hPa
Rain since
9am
mm
Dir  Spd
kts
Gust
kts
Height
m
Period
s
Dir
02/11:30pm NW 13 19 - - - - - - - 13.4 1011.8 0.0
02/11:00pm WNW 15 23 - - - - - - - 12.4 1012.3 0.0
02/10:30pm NW 12 18 - - - - - - - 13.4 1011.9 0.0
02/10:00pm WNW 12 19 - - - - - - - 13.1 1012.5 0.0
02/09:30pm NW 12 18 - - - - - - - 13.9 1012.5 0.0
02/09:00pm NW 12 19 - - - - - - - 14.1 1012.7 0.0
02/08:30pm NW 11 17 - - - - - - - 13.6 1012.6 0.0
02/08:00pm WNW 11 18 - - - - - - - 13.6 1012.3 0.0
02/07:30pm NNW 9 15 - - - - - - - 13.1 1012.2 0.0
02/07:00pm WNW 6 10 - - - - - - - 12.8 1012.2 0.0
02/06:30pm NNW 10 14 - - - - - - - 12.7 1012.2 0.0
02/06:00pm NNW 12 20 - - - - - - - 12.4 1012.2 0.0
02/05:30pm NW 14 21 - - - - - - - 12.1 1012.3 0.0
02/05:00pm NW 11 17 - - - - - - - 13.0 1012.4 0.0
02/04:30pm NW 13 18 - - - - - - - 13.3 1012.6 0.0
02/04:00pm NW 12 18 - - - - - - - 13.7 1012.6 0.0
02/03:30pm NW 11 16 - - - - - - - 14.7 1012.7 0.0
02/03:00pm NNW 10 13 - - - - - - - 14.4 1012.7 0.0
02/02:30pm NNW 10 14 - - - - - - - 13.9 1013.0 0.0
02/02:00pm NNW 13 19 - - - - - - - 13.9 1013.4 0.0
02/01:30pm NW 11 16 - - - - - - - 13.8 1013.8 0.0
02/01:00pm NW 10 15 - - - - - - - 13.9 1014.4 0.0
02/12:30pm NW 11 14 - - - - - - - 14.2 1014.7 0.0
02/12:00pm WNW 11 18 - - - - - - - 13.7 1015.2 0.0
02/11:30am NW 11 17 - - - - - - - 14.0 1015.5 0.0
02/11:00am NW 9 12 - - - - - - - 14.0 1015.5 0.0
02/10:30am NW 10 15 - - - - - - - 13.7 1015.7 0.0
02/10:00am WNW 9 14 - - - - - - - 13.9 1015.7 0.0
02/09:30am WNW 7 10 - - - - - - - 13.5 1015.5 2.2
02/09:00am W 4 7 - - - - - - - 13.1 1015.8 2.2
02/08:30am WNW 5 7 - - - - - - - 12.8 1015.7 2.2
02/08:00am WNW 6 10 - - - - - - - 12.5 1015.5 2.2
02/07:30am W 5 8 - - - - - - - 12.2 1015.5 2.2
02/07:00am WNW 8 13 - - - - - - - 12.0 1015.4 2.2
02/06:30am W 6 10 - - - - - - - 12.0 1015.3 2.2
02/06:00am WSW 6 10 - - - - - - - 12.1 1015.3 2.2
02/05:30am W 7 12 - - - - - - - 12.0 1015.1 2.2
02/05:00am WSW 5 10 - - - - - - - 12.1 1014.9 2.2
02/04:30am W 4 7 - - - - - - - 11.9 1014.9 2.2
02/04:00am W 4 8 - - - - - - - 11.7 1015.0 2.2
02/03:30am W 3 6 - - - - - - - 11.5 1015.1 2.2
02/03:00am WSW 3 7 - - - - - - - 11.7 1015.4 2.2
02/02:30am WSW 4 7 - - - - - - - 11.0 1015.5 2.2
02/02:00am WSW 4 6 - - - - - - - 11.4 1015.5 2.2
02/01:30am WSW 4 8 - - - - - - - 11.1 1015.6 2.2
02/01:00am WSW 3 3 - - - - - - - 11.1 1015.4 2.2
02/12:30am WSW 4 6 - - - - - - - 11.1 1015.5 2.2
02/12:00am SW 5 7 - - - - - - - 11.9 1015.3 2.2
 
Date/Time
EST
Wind Sea
Height
m
Swell Vis
km
Cloud Weather Temp
°C
Press
MSL
hPa
Rain since
9am
mm
Dir  Spd
kts
Gust
kts
Height
m
Period
s
Dir
01/11:30pm WSW 3 4 - - - - - - - 12.1 1015.3 2.2
01/11:00pm SW 5 7 - - - - - - - 12.4 1015.3 2.2
01/10:30pm SW 5 8 - - - - - - - 12.8 1015.2 2.2
01/10:00pm SW 5 8 - - - - - - - 12.9 1015.0 2.2
01/09:30pm SW 7 10 - - - - - - - 13.3 1014.7 2.2
01/09:00pm SW 6 9 - - - - - - - 13.4 1014.6 2.2
01/08:30pm SSW 8 11 - - - - - - - 13.8 1014.2 2.2
01/08:00pm SW 5 8 - - - - - - - 14.0 1013.7 2.2
01/07:30pm WSW 5 9 - - - - - - - 14.3 1013.3 2.2
01/07:00pm WSW 7 15 - - - - - - - 14.4 1012.9 2.2
01/06:30pm WNW 13 18 - - - - - - Rain 14.9 1012.7 2.0
01/06:00pm NW 12 16 - - - - - - - 15.4 1012.4 1.6
01/05:30pm NW 12 17 - - - - - - - 15.2 1012.1 1.6
01/05:00pm NW 10 15 - - - - - - - 15.2 1011.9 1.6
01/04:30pm NNW 11 16 - - - - - - - 15.5 1011.9 1.6
01/04:00pm NNW 14 18 - - - - - - - 15.6 1011.7 1.6
01/03:30pm NNW 13 17 - - - - - - Recent precip. 14.9 1011.6 1.6
01/03:00pm NNW 13 18 - - - - - - - 14.8 1011.8 1.4
01/02:30pm NNW 9 13 - - - - - - - 14.6 1012.5 1.0
01/02:00pm NNW 9 13 - - - - - - - 15.0 1012.7 0.0
01/01:30pm NNW 11 15 - - - - - - - 15.6 1013.3 0.0
01/01:00pm NW 14 20 - - - - - - - 16.1 1013.8 0.0
01/12:30pm NNW 17 23 - - - - - - - 17.7 1013.4 0.0
01/12:00pm N 21 27 - - - - - - - 18.1 1013.4 0.0
01/11:57am N 21 27 - - - - - - - 18.3 1013.4 0.0
01/11:38am N 20 32 - - - - - - - 18.9 1013.6 0.0
01/11:30am N 20 26 - - - - - - - 18.4 1013.6 0.0
01/11:00am N 18 25 - - - - - - - 16.4 1014.2 0.0
01/10:30am N 17 24 - - - - - - - 16.6 1014.6 0.0
01/10:00am N 18 25 - - - - - - - 16.3 1014.6 0.0
01/09:30am N 13 17 - - - - - - - 15.1 1015.0 0.2
01/09:00am N 14 17 - - - - - - - 14.4 1015.4 0.2
01/08:30am N 12 15 - - - - - - - 13.1 1015.7 0.2
01/08:00am N 12 15 - - - - - - - 12.5 1015.9 0.2
01/07:30am N 13 17 - - - - - - - 12.4 1015.8 0.2
01/07:00am N 13 15 - - - - - - - 11.1 1016.1 0.2
01/06:30am N 13 17 - - - - - - - 11.1 1016.3 0.2
01/06:00am N 12 15 - - - - - - - 10.9 1016.7 0.2
01/05:30am N 10 13 - - - - - - - 10.4 1017.1 0.2
01/05:00am N 7 11 - - - - - - - 10.0 1017.5 0.2
01/04:30am N 8 11 - - - - - - - 10.9 1017.8 0.2
01/04:00am N 9 12 - - - - - - - 11.1 1018.0 0.2
01/03:30am N 8 10 - - - - - - - 10.9 1018.7 0.2
01/03:00am N 8 11 - - - - - - - 10.9 1019.3 0.2
01/02:30am N 8 11 - - - - - - - 11.1 1020.0 0.2
01/02:00am N 8 10 - - - - - - - 10.6 1020.6 0.2
01/01:30am N 6 8 - - - - - - - 10.2 1021.1 0.2
01/01:00am NNE 8 10 - - - - - - - 10.7 1021.4 0.2
01/12:30am NNE 6 8 - - - - - - - 9.2 1021.8 0.2
01/12:00am CALM 0 0 - - - - - - - 6.2 1022.4 0.2
 
Date/Time
EST
Wind Sea
Height
m
Swell Vis
km
Cloud Weather Temp
°C
Press
MSL
hPa
Rain since
9am
mm
Dir  Spd
kts
Gust
kts
Height
m
Period
s
Dir
31/11:30pm CALM 0 0 - - - - - - - 6.8 1023.1 0.2
31/11:00pm CALM 0 0 - - - - - - - 7.4 1023.7 0.2
31/10:30pm CALM 0 0 - - - - - - - 7.5 1024.0 0.2
31/10:00pm CALM 0 0 - - - - - - - 8.7 1024.2 0.2
31/09:30pm CALM 0 0 - - - - - - - 7.8 1024.2 0.2
31/09:00pm CALM 0 0 - - - - - - - 8.6 1024.5 0.2
31/08:30pm NW 1 2 - - - - - - - 8.4 1024.7 0.2
31/08:00pm NW 2 3 - - - - - - - 8.7 1025.0 0.2
31/07:30pm CALM 0 0 - - - - - - - 8.9 1025.3 0.2
31/07:00pm CALM 0 0 - - - - - - - 10.9 1025.6 0.2
31/06:30pm CALM 0 1 - - - - - - - 12.6 1025.7 0.2
31/06:00pm NW 2 3 - - - - - - - 14.5 1025.9 0.2
31/05:30pm NNW 4 5 - - - - - - - 15.4 1025.9 0.2
31/05:00pm NW 5 7 - - - - - - - 15.9 1026.1 0.2
31/04:30pm NW 7 9 - - - - - - - 15.9 1026.6 0.2
31/04:00pm NNW 5 8 - - - - - - - 16.0 1026.7 0.2
31/03:30pm NW 6 8 - - - - - - - 15.5 1027.0 0.2
31/03:00pm NNW 5 7 - - - - - - - 16.0 1027.4 0.2
31/02:30pm NW 6 8 - - - - - - - 16.2 1028.0 0.2
31/02:00pm WNW 3 5 - - - - - - - 16.9 1028.3 0.0
31/01:30pm NNW 4 5 - - - - - - - 16.4 1029.0 0.0
31/01:00pm NW 3 5 - - - - - - - 16.2 1029.4 0.0
31/12:30pm CALM 0 2 - - - - - - - 15.4 1030.1 0.0
31/12:00pm ENE 1 2 - - - - - - - 13.8 1030.8 0.0
31/11:30am ENE 3 5 - - - - - - - 11.7 1031.0 0.0
31/11:00am NNE 3 6 - - - - - - - 10.7 1031.4 0.0
31/10:30am NE 4 7 - - - - - - - 9.1 1031.6 0.0
31/10:00am ENE 4 6 - - - - - - - 8.7 1031.7 0.0
31/09:30am E 4 5 - - - - - - - 8.0 1031.7 0.0
31/09:00am ENE 4 6 - - - - - - - 7.3 1031.9 0.0
31/08:30am E 4 6 - - - - - - - 6.8 1032.0 0.0
31/08:00am E 2 3 - - - - - - - 5.5 1031.9 0.0
31/07:30am E 2 3 - - - - - - - 4.8 1031.9 0.0
31/07:00am ESE 2 3 - - - - - - - 5.2 1031.8 0.0
31/06:30am S 2 2 - - - - - - - 5.2 1031.9 0.0
31/06:00am SSW 1 3 - - - - - - - 4.1 1031.8 0.0
31/05:30am CALM 0 0 - - - - - - - 4.0 1031.8 0.0
31/05:00am CALM 0 0 - - - - - - - 2.7 1031.7 0.0
31/04:30am CALM 0 0 - - - - - - - 1.8 1031.7 0.0
31/04:00am CALM 0 0 - - - - - - - 2.1 1031.8 0.0
31/03:30am CALM 0 0 - - - - - - - 2.3 1032.0 0.0
31/03:00am CALM 0 0 - - - - - - - 2.2 1032.4 0.0
31/02:30am CALM 0 0 - - - - - - - 2.5 1032.8 0.0
31/02:00am CALM 0 0 - - - - - - - 2.5 1033.0 0.0
31/01:30am SSW 1 1 - - - - - - - 2.8 1033.1 0.0

Other formats

Comma delimited format used in spreadsheet applications
http://www.bom.gov.au/fwo/IDV60701/IDV60701.95816.axf

JavaScript Object Notation format (JSON) in row-major order
http://www.bom.gov.au/fwo/IDV60701/IDV60701.95816.json

Data quality

Most of these data are generated automatically and are frequently updated. Quality checks on data are not normally performed. It is possible for incorrect values to appear. Refer to information at About Latest Weather Observations and please check the disclaimer before using these data.